createdAt,value
2017-10-10T00:00:45.920Z,29.20
2017-10-10T00:01:45.939Z,27.20
2017-10-10T00:02:45.957Z,30.30
2017-10-10T00:03:45.979Z,30.50
2017-10-10T00:04:45.997Z,28.70
2017-10-10T00:05:46.016Z,29.10
2017-10-10T00:06:46.038Z,28.20
2017-10-10T00:07:46.055Z,28.00
2017-10-10T00:08:46.085Z,30.00
2017-10-10T00:09:46.094Z,27.40
2017-10-10T00:10:46.113Z,28.50
2017-10-10T00:11:46.133Z,27.00
2017-10-10T00:12:46.169Z,26.90
2017-10-10T00:13:46.173Z,25.60
2017-10-10T00:14:46.200Z,26.80
2017-10-10T00:15:46.212Z,27.00
2017-10-10T00:16:46.231Z,27.70
2017-10-10T00:17:46.252Z,25.40
2017-10-10T00:18:46.271Z,25.70
2017-10-10T00:19:46.290Z,23.50
2017-10-10T00:20:46.309Z,21.70
2017-10-10T00:21:46.332Z,19.10
2017-10-10T00:22:46.346Z,16.90
2017-10-10T00:23:46.366Z,17.10
2017-10-10T00:24:46.384Z,16.90
2017-10-10T00:25:46.411Z,17.80
2017-10-10T00:26:46.425Z,16.10
2017-10-10T00:27:46.445Z,13.00
2017-10-10T00:28:46.464Z,13.10
2017-10-10T00:29:46.485Z,13.50
2017-10-10T00:30:46.504Z,15.10
2017-10-10T00:31:46.524Z,14.10
2017-10-10T00:32:46.542Z,14.60
2017-10-10T00:33:46.572Z,14.60
2017-10-10T00:34:46.582Z,14.10
2017-10-10T00:35:46.600Z,14.70
2017-10-10T00:36:46.622Z,13.50
2017-10-10T00:37:46.641Z,15.10
2017-10-10T00:38:46.660Z,13.90
2017-10-10T00:39:46.680Z,13.10
2017-10-10T00:40:46.698Z,14.00
2017-10-10T00:41:46.719Z,13.10
2017-10-10T00:42:46.738Z,10.40
2017-10-10T00:43:46.756Z,10.90
2017-10-10T00:44:46.778Z,10.40
2017-10-10T00:45:46.798Z,9.30
2017-10-10T00:46:46.815Z,10.10
2017-10-10T00:47:46.836Z,10.70
2017-10-10T00:48:46.857Z,10.10
2017-10-10T00:49:46.876Z,9.50
2017-10-10T00:50:46.894Z,10.20
2017-10-10T00:51:46.914Z,11.10
2017-10-10T00:52:46.935Z,12.00
2017-10-10T00:53:46.952Z,11.20
2017-10-10T00:54:46.982Z,11.90
2017-10-10T00:55:47.010Z,10.40
2017-10-10T00:56:47.011Z,10.50
2017-10-10T00:57:47.031Z,12.10
2017-10-10T00:58:47.055Z,11.50
2017-10-10T00:59:47.072Z,11.70
2017-10-10T01:00:47.094Z,11.40
2017-10-10T01:01:47.111Z,11.50
2017-10-10T01:02:47.133Z,11.50
2017-10-10T01:03:47.150Z,11.00
2017-10-10T01:04:47.168Z,10.40
2017-10-10T01:05:47.191Z,10.00
2017-10-10T01:06:47.208Z,10.50
2017-10-10T01:07:47.229Z,9.50
2017-10-10T01:08:47.248Z,9.50
2017-10-10T01:09:47.266Z,9.80
2017-10-10T01:10:47.286Z,9.40
2017-10-10T01:11:47.303Z,9.80
2017-10-10T01:12:47.323Z,10.70
2017-10-10T01:13:47.344Z,10.90
2017-10-10T01:14:47.364Z,11.00
2017-10-10T01:15:47.385Z,11.20
2017-10-10T01:16:47.401Z,12.50
2017-10-10T01:17:47.422Z,12.20
2017-10-10T01:18:47.439Z,12.70
2017-10-10T01:19:47.464Z,12.80
2017-10-10T01:20:47.479Z,12.70
2017-10-10T01:21:47.498Z,13.20
2017-10-10T01:22:47.517Z,12.90
2017-10-10T01:23:47.538Z,13.50
2017-10-10T01:24:47.556Z,12.80
2017-10-10T01:25:47.576Z,12.00
2017-10-10T01:26:47.596Z,12.40
2017-10-10T01:27:47.615Z,13.40
2017-10-10T01:28:47.635Z,12.20
2017-10-10T01:29:47.656Z,12.20
2017-10-10T01:30:47.676Z,11.40
2017-10-10T01:31:47.697Z,11.20
2017-10-10T01:32:47.713Z,11.80
2017-10-10T01:33:47.731Z,12.50
2017-10-10T01:34:47.753Z,13.30
2017-10-10T01:35:47.770Z,12.40
2017-10-10T01:36:47.792Z,13.40
2017-10-10T01:37:47.811Z,12.20
2017-10-10T01:38:47.830Z,12.70
2017-10-10T01:39:47.849Z,11.10
2017-10-10T01:40:47.873Z,11.40
2017-10-10T01:41:47.888Z,11.40
2017-10-10T01:42:47.908Z,11.50
2017-10-10T01:43:47.929Z,11.30
2017-10-10T01:44:47.946Z,10.80
2017-10-10T01:45:47.966Z,10.60
2017-10-10T01:46:47.985Z,10.90
2017-10-10T01:47:48.006Z,13.10
2017-10-10T01:48:48.023Z,12.30
2017-10-10T01:49:48.045Z,9.90
2017-10-10T01:50:48.067Z,10.30
2017-10-10T01:51:48.084Z,9.80
2017-10-10T01:52:48.103Z,11.20
2017-10-10T01:53:48.121Z,11.20
2017-10-10T01:54:48.141Z,10.50
2017-10-10T01:55:48.164Z,10.00
2017-10-10T01:56:48.182Z,9.70
2017-10-10T01:57:48.200Z,10.10
2017-10-10T01:58:48.222Z,10.40
2017-10-10T01:59:48.241Z,10.20
2017-10-10T02:00:48.261Z,9.10
2017-10-10T02:01:48.282Z,9.60
2017-10-10T02:02:48.299Z,10.50
2017-10-10T02:03:48.316Z,9.60
2017-10-10T02:04:48.340Z,10.70
2017-10-10T02:05:48.359Z,10.20
2017-10-10T02:06:48.376Z,11.00
2017-10-10T02:07:48.417Z,11.40
2017-10-10T02:08:48.416Z,11.10
2017-10-10T02:09:48.438Z,9.10
2017-10-10T02:10:48.457Z,9.40
2017-10-10T02:11:48.473Z,10.30
2017-10-10T02:12:48.495Z,11.30
2017-10-10T02:13:48.513Z,11.30
2017-10-10T02:14:48.549Z,10.90
2017-10-10T02:15:48.552Z,12.10
2017-10-10T02:16:48.573Z,11.80
2017-10-10T02:17:48.593Z,11.70
2017-10-10T02:18:48.614Z,12.40
2017-10-10T02:19:48.633Z,12.30
2017-10-10T02:20:48.653Z,13.30
2017-10-10T02:21:48.679Z,13.10
2017-10-10T02:22:48.691Z,12.80
2017-10-10T02:23:48.714Z,12.70
2017-10-10T02:24:48.728Z,12.50
2017-10-10T02:25:48.748Z,12.10
2017-10-10T02:26:48.769Z,12.30
2017-10-10T02:27:48.788Z,12.10
2017-10-10T02:28:48.810Z,12.40
2017-10-10T02:29:48.828Z,12.00
2017-10-10T02:30:48.850Z,11.50
2017-10-10T02:31:48.869Z,12.20
2017-10-10T02:32:48.887Z,12.20
2017-10-10T02:33:48.909Z,12.30
2017-10-10T02:34:48.928Z,12.80
2017-10-10T02:35:48.946Z,12.30
2017-10-10T02:36:48.967Z,11.60
2017-10-10T02:37:48.985Z,12.90
2017-10-10T02:38:49.007Z,12.50
2017-10-10T02:39:49.026Z,12.20
2017-10-10T02:40:49.047Z,11.70
2017-10-10T02:41:49.066Z,12.40
2017-10-10T02:42:49.085Z,12.70
2017-10-10T02:43:49.107Z,13.40
2017-10-10T02:44:49.128Z,13.10
2017-10-10T02:45:49.150Z,13.00
2017-10-10T02:46:49.164Z,13.70
2017-10-10T02:47:49.184Z,13.90
2017-10-10T02:48:49.221Z,13.50
2017-10-10T02:49:49.231Z,14.20
2017-10-10T02:50:49.244Z,12.70
2017-10-10T02:51:49.263Z,13.80
2017-10-10T02:52:49.284Z,14.40
2017-10-10T02:53:49.302Z,15.50
2017-10-10T02:54:49.324Z,15.60
2017-10-10T02:55:49.348Z,15.50
2017-10-10T02:56:49.363Z,14.50
2017-10-10T02:57:49.381Z,13.60
2017-10-10T02:58:49.402Z,14.00
2017-10-10T02:59:49.421Z,13.40
2017-10-10T03:00:49.442Z,14.30
2017-10-10T03:01:49.463Z,14.50
2017-10-10T03:02:49.479Z,13.70
2017-10-10T03:03:49.502Z,13.90
2017-10-10T03:04:49.522Z,13.80
2017-10-10T03:05:49.541Z,13.80
2017-10-10T03:06:49.561Z,13.90
2017-10-10T03:07:49.578Z,13.70
2017-10-10T03:08:49.598Z,14.50
2017-10-10T03:09:49.620Z,14.70
2017-10-10T03:10:49.637Z,14.80
2017-10-10T03:11:49.659Z,15.20
2017-10-10T03:12:49.680Z,15.60
2017-10-10T03:13:49.698Z,15.60
2017-10-10T03:14:49.718Z,15.40
2017-10-10T03:15:49.737Z,14.90
2017-10-10T03:16:49.759Z,15.30
2017-10-10T03:17:49.777Z,15.70
2017-10-10T03:18:49.797Z,16.20
2017-10-10T03:19:49.820Z,16.70
2017-10-10T03:20:49.835Z,15.90
2017-10-10T03:21:49.855Z,15.20
2017-10-10T03:22:49.885Z,15.80
2017-10-10T03:23:49.896Z,16.50
2017-10-10T03:24:49.916Z,17.10
2017-10-10T03:25:49.933Z,17.10
2017-10-10T03:26:49.956Z,17.10
2017-10-10T03:27:49.980Z,16.50
2017-10-10T03:28:49.996Z,15.70
2017-10-10T03:29:50.020Z,17.30
2017-10-10T03:30:50.037Z,16.10
2017-10-10T03:31:50.057Z,16.70
2017-10-10T03:32:50.076Z,16.80
2017-10-10T03:33:50.095Z,16.40
2017-10-10T03:34:50.114Z,17.50
2017-10-10T03:35:50.135Z,17.90
2017-10-10T03:36:50.157Z,18.60
2017-10-10T03:37:50.175Z,19.20
2017-10-10T03:38:50.194Z,18.40
2017-10-10T03:39:50.214Z,16.60
2017-10-10T03:40:50.234Z,18.40
2017-10-10T03:41:50.254Z,18.30
2017-10-10T03:42:50.272Z,18.50
2017-10-10T03:43:50.313Z,18.10
2017-10-10T03:44:50.312Z,17.80
2017-10-10T03:45:50.330Z,17.80
2017-10-10T03:46:50.351Z,18.20
2017-10-10T03:47:50.374Z,17.80
2017-10-10T03:48:50.393Z,18.40
2017-10-10T03:49:50.409Z,20.10
2017-10-10T03:50:50.430Z,19.50
2017-10-10T03:51:50.450Z,20.20
2017-10-10T03:52:50.473Z,20.20
2017-10-10T03:53:50.489Z,20.40
2017-10-10T03:54:50.510Z,20.80
2017-10-10T03:55:50.529Z,21.00
2017-10-10T03:56:50.549Z,21.10
2017-10-10T03:57:50.569Z,21.30
2017-10-10T03:58:50.587Z,21.00
2017-10-10T03:59:50.606Z,26.40
2017-10-10T04:00:50.629Z,33.50
2017-10-10T04:01:50.654Z,23.30
2017-10-10T04:02:50.665Z,24.80
2017-10-10T04:03:50.686Z,29.00
2017-10-10T04:04:50.710Z,32.20
2017-10-10T04:05:50.725Z,37.00
2017-10-10T04:06:50.743Z,33.80
2017-10-10T04:07:50.765Z,34.50
2017-10-10T04:08:50.786Z,36.30
2017-10-10T04:09:50.815Z,38.20
2017-10-10T04:10:50.825Z,35.50
2017-10-10T04:11:50.845Z,33.50
2017-10-10T04:12:50.870Z,33.20
2017-10-10T04:13:50.881Z,33.40
2017-10-10T04:14:50.904Z,32.10
2017-10-10T04:15:50.923Z,37.60
2017-10-10T04:16:50.945Z,39.10
2017-10-10T04:17:51.031Z,38.40
2017-10-10T04:18:50.983Z,36.20
2017-10-10T04:19:51.003Z,35.40
2017-10-10T04:20:51.023Z,34.00
2017-10-10T04:21:51.041Z,33.60
2017-10-10T04:22:51.063Z,32.00
2017-10-10T04:23:51.082Z,30.40
2017-10-10T04:24:51.100Z,30.60
2017-10-10T04:25:51.124Z,30.30
2017-10-10T04:26:51.140Z,29.80
2017-10-10T04:27:51.162Z,31.40
2017-10-10T04:28:51.180Z,31.10
2017-10-10T04:29:51.200Z,31.70
2017-10-10T04:30:51.219Z,32.10
2017-10-10T04:31:51.240Z,32.80
2017-10-10T04:32:51.258Z,33.00
2017-10-10T04:33:51.280Z,32.70
2017-10-10T04:34:51.300Z,32.70
2017-10-10T04:35:51.320Z,33.80
2017-10-10T04:36:51.341Z,31.80
2017-10-10T04:37:51.361Z,34.90
2017-10-10T04:38:51.377Z,34.70
2017-10-10T04:39:51.397Z,34.00
2017-10-10T04:40:51.418Z,33.50
2017-10-10T04:41:51.437Z,33.90
2017-10-10T04:42:51.456Z,33.90
2017-10-10T04:43:51.479Z,31.90
2017-10-10T04:44:51.497Z,31.90
2017-10-10T04:45:51.517Z,33.70
2017-10-10T04:46:51.536Z,32.10
2017-10-10T04:47:51.564Z,32.40
2017-10-10T04:48:51.578Z,32.60
2017-10-10T04:49:51.596Z,32.40
2017-10-10T04:50:51.639Z,32.10
2017-10-10T04:51:51.651Z,34.40
2017-10-10T04:52:51.655Z,36.20
2017-10-10T04:53:51.676Z,35.20
2017-10-10T04:54:51.696Z,33.90
2017-10-10T04:55:51.714Z,33.50
2017-10-10T04:56:51.736Z,34.80
2017-10-10T04:57:51.751Z,36.50
2017-10-10T04:58:51.773Z,37.60
2017-10-10T04:59:51.792Z,34.00
2017-10-10T05:00:51.812Z,34.50
2017-10-10T05:01:51.829Z,33.90
2017-10-10T05:02:51.852Z,32.50
2017-10-10T05:03:51.871Z,31.80
2017-10-10T05:04:51.893Z,34.90
2017-10-10T05:05:51.913Z,34.50
2017-10-10T05:06:51.932Z,33.40
2017-10-10T05:07:51.953Z,36.20
2017-10-10T05:08:51.971Z,34.00
2017-10-10T05:09:51.991Z,34.40
2017-10-10T05:10:52.010Z,34.30
2017-10-10T05:11:52.037Z,33.70
2017-10-10T05:12:52.051Z,34.70
2017-10-10T05:13:52.069Z,34.90
2017-10-10T05:14:52.090Z,34.40
2017-10-10T05:15:52.113Z,35.60
2017-10-10T05:16:52.132Z,33.30
2017-10-10T05:17:52.153Z,34.30
2017-10-10T05:18:52.171Z,33.20
2017-10-10T05:19:52.190Z,34.00
2017-10-10T05:20:52.211Z,33.80
2017-10-10T05:21:52.230Z,33.90
2017-10-10T05:22:52.249Z,34.90
2017-10-10T05:23:52.270Z,33.60
2017-10-10T05:24:52.287Z,37.00
2017-10-10T05:25:52.313Z,38.10
2017-10-10T05:26:52.328Z,36.50
2017-10-10T05:27:52.352Z,35.30
2017-10-10T05:28:52.369Z,34.00
2017-10-10T05:29:52.389Z,35.70
2017-10-10T05:30:52.406Z,34.40
2017-10-10T05:31:52.433Z,34.10
2017-10-10T05:32:52.451Z,35.80
2017-10-10T05:33:52.468Z,35.20
2017-10-10T05:34:52.494Z,33.10
2017-10-10T05:35:52.511Z,33.50
2017-10-10T05:36:52.535Z,34.50
2017-10-10T05:37:52.547Z,33.30
2017-10-10T05:38:52.565Z,34.40
2017-10-10T05:39:52.589Z,33.80
2017-10-10T05:40:52.606Z,36.50
2017-10-10T05:41:52.627Z,34.50
2017-10-10T05:42:52.645Z,35.40
2017-10-10T05:43:52.665Z,34.70
2017-10-10T05:44:52.686Z,34.80
2017-10-10T05:45:52.711Z,36.20
2017-10-10T05:46:52.725Z,34.30
2017-10-10T05:47:52.747Z,35.30
2017-10-10T05:48:52.764Z,35.30
2017-10-10T05:49:52.784Z,35.10
2017-10-10T05:50:52.805Z,34.80
2017-10-10T05:51:52.823Z,33.50
2017-10-10T05:52:52.846Z,32.10
2017-10-10T05:53:52.865Z,32.80
2017-10-10T05:54:52.894Z,34.10
2017-10-10T05:55:52.904Z,34.90
2017-10-10T05:56:52.922Z,33.70
2017-10-10T05:57:52.945Z,32.60
2017-10-10T05:58:52.965Z,33.50
2017-10-10T05:59:52.986Z,32.20
2017-10-10T06:00:53.001Z,33.40
2017-10-10T06:01:53.021Z,32.80
2017-10-10T06:02:53.044Z,34.10
2017-10-10T06:03:53.067Z,33.80
2017-10-10T06:04:53.081Z,34.80
2017-10-10T06:05:53.102Z,32.50
2017-10-10T06:06:53.125Z,33.00
2017-10-10T06:07:53.149Z,32.80
2017-10-10T06:08:53.166Z,34.00
2017-10-10T06:09:53.183Z,34.80
2017-10-10T06:10:53.199Z,33.10
2017-10-10T06:11:53.219Z,32.70
2017-10-10T06:12:53.258Z,33.20
2017-10-10T06:13:53.260Z,34.00
2017-10-10T06:14:53.279Z,32.10
2017-10-10T06:15:53.304Z,32.80
2017-10-10T06:16:53.324Z,33.70
2017-10-10T06:17:53.338Z,34.30
2017-10-10T06:18:53.364Z,33.70
2017-10-10T06:19:53.425Z,34.40
2017-10-10T06:20:53.399Z,34.00
2017-10-10T06:21:53.420Z,32.40
2017-10-10T06:22:53.442Z,33.80
2017-10-10T06:23:53.569Z,34.20
2017-10-10T06:24:53.480Z,34.70
2017-10-10T06:25:53.513Z,35.40
2017-10-10T06:26:53.521Z,34.90
2017-10-10T06:27:53.567Z,34.50
2017-10-10T06:28:53.559Z,33.30
2017-10-10T06:29:53.597Z,34.50
2017-10-10T06:30:53.601Z,34.80
2017-10-10T06:31:53.622Z,33.60
2017-10-10T06:32:53.640Z,34.20
2017-10-10T06:33:53.659Z,34.40
2017-10-10T06:34:53.678Z,34.80
2017-10-10T06:35:53.701Z,34.20
2017-10-10T06:36:53.733Z,34.40
2017-10-10T06:37:53.738Z,34.30
2017-10-10T06:38:53.757Z,34.30
2017-10-10T06:39:53.780Z,34.80
2017-10-10T06:40:53.801Z,35.40
2017-10-10T06:41:53.821Z,36.80
2017-10-10T06:42:53.840Z,35.70
2017-10-10T06:43:53.858Z,35.90
2017-10-10T06:44:53.878Z,34.90
2017-10-10T06:45:53.899Z,34.80
2017-10-10T06:46:53.918Z,35.50
2017-10-10T06:47:53.941Z,34.40
2017-10-10T06:48:53.965Z,33.60
2017-10-10T06:49:53.978Z,34.60
2017-10-10T06:50:54.023Z,34.80
2017-10-10T06:51:54.018Z,34.80
2017-10-10T06:52:54.054Z,34.00
2017-10-10T06:53:54.060Z,34.10
2017-10-10T06:54:54.081Z,34.30
2017-10-10T06:55:54.098Z,32.20
2017-10-10T06:56:54.156Z,33.90
2017-10-10T06:57:54.147Z,35.30
2017-10-10T06:58:54.162Z,34.70
2017-10-10T06:59:54.179Z,35.90
2017-10-10T07:00:54.200Z,34.40
2017-10-10T07:01:54.235Z,33.50
2017-10-10T07:02:54.241Z,33.30
2017-10-10T07:03:54.260Z,33.10
2017-10-10T07:04:54.280Z,33.50
2017-10-10T07:05:54.300Z,35.90
2017-10-10T07:06:54.319Z,33.90
2017-10-10T07:07:54.340Z,34.10
2017-10-10T07:08:54.362Z,35.00
2017-10-10T07:09:54.382Z,34.50
2017-10-10T07:10:54.399Z,35.00
2017-10-10T07:11:54.419Z,34.40
2017-10-10T07:12:54.443Z,34.60
2017-10-10T07:13:54.461Z,32.80
2017-10-10T07:14:54.481Z,32.20
2017-10-10T07:15:54.500Z,33.90
2017-10-10T07:16:54.519Z,33.50
2017-10-10T07:17:54.540Z,33.80
2017-10-10T07:18:54.560Z,34.30
2017-10-10T07:19:54.587Z,33.70
2017-10-10T07:20:54.600Z,33.50
2017-10-10T07:21:54.656Z,32.80
2017-10-10T07:22:54.643Z,32.80
2017-10-10T07:23:54.663Z,32.90
2017-10-10T07:24:54.681Z,32.90
2017-10-10T07:25:54.724Z,32.90
2017-10-10T07:26:54.728Z,34.00
2017-10-10T07:27:54.860Z,33.50
2017-10-10T07:28:54.766Z,34.30
2017-10-10T07:29:54.787Z,34.20
2017-10-10T07:30:54.804Z,33.40
2017-10-10T07:31:54.833Z,34.30
2017-10-10T07:32:54.844Z,35.20
2017-10-10T07:33:54.859Z,33.30
2017-10-10T07:34:54.884Z,32.60
2017-10-10T07:35:54.903Z,32.60
2017-10-10T07:36:54.927Z,33.20
2017-10-10T07:37:54.943Z,33.90
2017-10-10T07:38:54.960Z,32.60
2017-10-10T07:39:54.984Z,33.80
2017-10-10T07:40:55.005Z,33.60
2017-10-10T07:41:55.020Z,32.90
2017-10-10T07:42:55.043Z,32.50
2017-10-10T07:43:55.062Z,31.90
2017-10-10T07:44:55.084Z,31.70
2017-10-10T07:45:55.101Z,32.40
2017-10-10T07:46:55.123Z,32.70
2017-10-10T07:47:55.141Z,32.80
2017-10-10T07:48:55.173Z,33.90
2017-10-10T07:49:55.182Z,34.90
2017-10-10T07:50:55.197Z,33.60
2017-10-10T07:51:55.218Z,33.10
2017-10-10T07:52:55.234Z,33.30
2017-10-10T07:53:55.268Z,32.90
2017-10-10T07:54:55.274Z,34.50
2017-10-10T07:55:55.297Z,33.80
2017-10-10T07:56:55.329Z,32.90
2017-10-10T07:57:55.345Z,32.70
2017-10-10T07:58:55.387Z,32.00
2017-10-10T07:59:55.384Z,32.70
2017-10-10T08:00:55.425Z,32.60
2017-10-10T08:01:55.425Z,31.50
2017-10-10T08:02:55.447Z,32.10
2017-10-10T08:03:55.464Z,31.30
2017-10-10T08:04:55.486Z,31.60
2017-10-10T08:05:55.506Z,31.10
2017-10-10T08:06:55.528Z,29.30
2017-10-10T08:07:55.549Z,30.40
2017-10-10T08:08:55.570Z,28.70
2017-10-10T08:09:55.587Z,28.20
2017-10-10T08:10:55.606Z,28.10
2017-10-10T08:11:55.627Z,30.20
2017-10-10T08:12:55.647Z,30.50
2017-10-10T08:13:55.666Z,27.70
2017-10-10T08:14:55.687Z,28.30
2017-10-10T08:15:55.708Z,27.00
2017-10-10T08:16:55.744Z,27.50
2017-10-10T08:17:55.751Z,27.40
2017-10-10T08:18:55.767Z,27.10
2017-10-10T08:19:55.791Z,27.90
2017-10-10T08:20:55.809Z,26.70
2017-10-10T08:21:55.830Z,25.60
2017-10-10T08:22:55.870Z,26.70
2017-10-10T08:23:55.870Z,26.40
2017-10-10T08:24:55.891Z,27.40
2017-10-10T08:25:55.917Z,36.20
2017-10-10T08:26:55.932Z,29.00
2017-10-10T08:27:55.959Z,25.30
2017-10-10T08:28:55.973Z,26.90
2017-10-10T08:29:56.036Z,27.10
2017-10-10T08:30:56.018Z,27.60
2017-10-10T08:31:56.038Z,28.50
2017-10-10T08:32:56.053Z,26.00
2017-10-10T08:33:56.074Z,25.70
2017-10-10T08:34:56.095Z,25.90
2017-10-10T08:35:56.114Z,25.20
2017-10-10T08:36:56.147Z,26.30
2017-10-10T08:37:56.175Z,27.20
2017-10-10T08:38:56.179Z,24.40
2017-10-10T08:39:56.195Z,24.90
2017-10-10T08:40:56.219Z,23.40
2017-10-10T08:41:56.237Z,24.20
2017-10-10T08:42:56.256Z,23.50
2017-10-10T08:43:56.282Z,23.50
2017-10-10T08:44:56.298Z,24.80
2017-10-10T08:45:56.318Z,25.60
2017-10-10T08:46:56.340Z,22.10
2017-10-10T08:47:56.358Z,23.50
2017-10-10T08:48:56.389Z,21.20
2017-10-10T08:49:56.397Z,20.90
2017-10-10T08:50:56.420Z,20.20
2017-10-10T08:51:56.443Z,20.20
2017-10-10T08:52:56.460Z,19.30
2017-10-10T08:53:56.481Z,19.40
2017-10-10T08:54:56.501Z,20.20
2017-10-10T08:55:56.524Z,19.90
2017-10-10T08:56:56.541Z,18.30
2017-10-10T08:57:56.563Z,18.20
2017-10-10T08:58:56.586Z,18.00
2017-10-10T08:59:56.603Z,15.80
2017-10-10T09:00:56.628Z,16.60
2017-10-10T09:01:56.643Z,17.20
2017-10-10T09:02:56.665Z,16.40
2017-10-10T09:03:56.683Z,16.90
2017-10-10T09:04:56.705Z,17.30
2017-10-10T09:05:56.725Z,17.30
2017-10-10T09:06:56.746Z,18.00
2017-10-10T09:07:56.770Z,17.60
2017-10-10T09:08:56.788Z,17.30
2017-10-10T09:09:56.811Z,17.60
2017-10-10T09:10:56.829Z,16.90
2017-10-10T09:11:56.853Z,17.40
2017-10-10T09:12:56.868Z,17.80
2017-10-10T09:13:56.888Z,17.10
2017-10-10T09:14:56.906Z,17.00
2017-10-10T09:15:56.930Z,17.90
2017-10-10T09:16:56.948Z,17.10
2017-10-10T09:17:56.977Z,17.20
2017-10-10T09:18:56.988Z,18.10
2017-10-10T09:19:57.012Z,17.70
2017-10-10T09:20:57.035Z,17.80
2017-10-10T09:21:57.051Z,18.80
2017-10-10T09:22:57.076Z,18.60
2017-10-10T09:23:57.092Z,18.20
2017-10-10T09:24:57.117Z,18.30
2017-10-10T09:25:57.131Z,19.10
2017-10-10T09:26:57.150Z,19.60
2017-10-10T09:27:57.175Z,18.70
2017-10-10T09:28:57.190Z,18.00
2017-10-10T09:29:57.357Z,17.70
2017-10-10T09:30:57.237Z,17.60
2017-10-10T09:31:57.255Z,18.20
2017-10-10T09:32:57.290Z,17.80
2017-10-10T09:33:57.295Z,17.70
2017-10-10T09:34:57.315Z,18.50
2017-10-10T09:35:57.346Z,17.50
2017-10-10T09:36:57.358Z,18.00
2017-10-10T09:37:57.378Z,20.00
2017-10-10T09:38:57.404Z,19.90
2017-10-10T09:39:57.437Z,19.30
2017-10-10T09:40:57.439Z,19.90
2017-10-10T09:41:57.460Z,19.40
2017-10-10T09:42:57.479Z,18.50
2017-10-10T09:43:57.500Z,19.20
2017-10-10T09:44:57.521Z,21.40
2017-10-10T09:45:57.541Z,20.00
2017-10-10T09:46:57.567Z,19.40
2017-10-10T09:47:57.586Z,18.60
2017-10-10T09:48:57.606Z,20.10
2017-10-10T09:49:57.638Z,19.10
2017-10-10T09:50:57.645Z,20.20
2017-10-10T09:51:57.663Z,18.60
2017-10-10T09:52:57.686Z,17.70
2017-10-10T09:53:57.705Z,19.60
2017-10-10T09:54:57.725Z,20.60
2017-10-10T09:55:57.748Z,20.20
2017-10-10T09:56:57.767Z,19.30
2017-10-10T09:57:57.791Z,21.00
2017-10-10T09:58:57.819Z,19.60
2017-10-10T09:59:57.827Z,20.20
2017-10-10T10:00:57.847Z,21.50
2017-10-10T10:01:57.867Z,19.90
2017-10-10T10:02:57.913Z,20.20
2017-10-10T10:03:57.910Z,19.80
2017-10-10T10:04:57.952Z,20.80
2017-10-10T10:05:57.957Z,20.80
2017-10-10T10:06:57.995Z,22.20
2017-10-10T10:07:57.992Z,21.90
2017-10-10T10:08:58.022Z,21.00
2017-10-10T10:09:58.033Z,20.30
2017-10-10T10:10:58.067Z,21.30
2017-10-10T10:11:58.073Z,19.80
2017-10-10T10:12:58.098Z,20.80
2017-10-10T10:13:58.116Z,20.30
2017-10-10T10:14:58.136Z,22.20
2017-10-10T10:15:58.156Z,22.70
2017-10-10T10:16:58.176Z,23.60
2017-10-10T10:17:58.198Z,23.40
2017-10-10T10:18:58.219Z,24.00
2017-10-10T10:19:58.243Z,23.20
2017-10-10T10:20:58.267Z,21.50
2017-10-10T10:21:58.280Z,21.00
2017-10-10T10:22:58.301Z,20.90
2017-10-10T10:23:58.321Z,20.90
2017-10-10T10:24:58.343Z,20.40
2017-10-10T10:25:58.362Z,19.30
2017-10-10T10:26:58.388Z,21.00
2017-10-10T10:27:58.406Z,21.20
2017-10-10T10:28:58.429Z,20.40
2017-10-10T10:29:58.449Z,20.00
2017-10-10T10:30:58.469Z,20.40
2017-10-10T10:31:58.510Z,20.70
2017-10-10T10:32:58.515Z,21.10
2017-10-10T10:33:58.528Z,19.90
2017-10-10T10:34:58.547Z,18.80
2017-10-10T10:35:58.589Z,19.40
2017-10-10T10:36:58.591Z,19.30
2017-10-10T10:37:58.612Z,19.80
2017-10-10T10:38:58.631Z,21.60
2017-10-10T10:39:58.822Z,22.10
2017-10-10T10:40:58.674Z,21.20
2017-10-10T10:41:58.746Z,22.50
2017-10-10T10:42:58.722Z,20.40
2017-10-10T10:43:58.736Z,20.00
2017-10-10T10:44:58.757Z,20.30
2017-10-10T10:45:58.778Z,21.00
2017-10-10T10:46:58.801Z,21.20
2017-10-10T10:47:58.822Z,21.70
2017-10-10T10:48:58.841Z,21.30
2017-10-10T10:49:58.884Z,21.60
2017-10-10T10:50:58.883Z,23.20
2017-10-10T10:51:58.905Z,23.30
2017-10-10T10:52:58.928Z,22.50
2017-10-10T10:53:58.947Z,20.90
2017-10-10T10:54:58.974Z,19.40
2017-10-10T10:55:58.990Z,19.40
2017-10-10T10:56:59.014Z,20.40
2017-10-10T10:57:59.033Z,21.00
2017-10-10T10:58:59.225Z,21.10
2017-10-10T10:59:59.076Z,21.20
2017-10-10T11:00:59.094Z,21.70
2017-10-10T11:01:59.161Z,21.20
2017-10-10T11:02:59.136Z,22.50
2017-10-10T11:03:59.157Z,22.50
2017-10-10T11:04:59.199Z,22.30
2017-10-10T11:05:59.203Z,23.90
2017-10-10T11:06:59.225Z,23.50
2017-10-10T11:07:59.245Z,27.50
2017-10-10T11:08:59.292Z,26.10
2017-10-10T11:09:59.283Z,25.20
2017-10-10T11:10:59.305Z,26.30
2017-10-10T11:11:59.329Z,24.40
2017-10-10T11:12:59.360Z,26.20
2017-10-10T11:13:59.368Z,25.80
2017-10-10T11:14:59.391Z,27.30
2017-10-10T11:15:59.410Z,28.10
2017-10-10T11:16:59.442Z,27.30
2017-10-10T11:17:59.449Z,27.70
2017-10-10T11:18:59.471Z,26.50
2017-10-10T11:19:59.497Z,27.90
2017-10-10T11:20:59.515Z,26.80
2017-10-10T11:21:59.536Z,28.10
2017-10-10T11:22:59.561Z,29.80
2017-10-10T11:23:59.588Z,29.20
2017-10-10T11:24:59.598Z,29.00
2017-10-10T11:25:59.624Z,28.30
2017-10-10T11:26:59.641Z,28.10
2017-10-10T11:27:59.663Z,28.40
2017-10-10T11:28:59.686Z,27.10
2017-10-10T11:29:59.703Z,28.80
2017-10-10T11:30:59.725Z,30.20
2017-10-10T11:31:59.748Z,30.80
2017-10-10T11:32:59.774Z,30.40
2017-10-10T11:33:59.795Z,30.20
2017-10-10T11:34:59.814Z,30.90
2017-10-10T11:35:59.833Z,30.50
2017-10-10T11:36:59.864Z,28.50
2017-10-10T11:37:59.877Z,30.40
2017-10-10T11:38:59.901Z,30.80
2017-10-10T11:39:59.918Z,32.40
2017-10-10T11:40:59.941Z,31.20
2017-10-10T11:41:59.977Z,30.80
2017-10-10T11:42:59.984Z,31.70
2017-10-10T11:44:00.004Z,31.40
2017-10-10T11:45:00.028Z,31.10
2017-10-10T11:46:00.070Z,29.40
2017-10-10T11:47:00.079Z,28.80
2017-10-10T11:48:00.091Z,28.60
2017-10-10T11:49:00.114Z,30.80
2017-10-10T11:50:00.151Z,31.10
2017-10-10T11:51:00.155Z,29.90
2017-10-10T11:52:00.180Z,29.30
2017-10-10T11:53:00.199Z,30.40
2017-10-10T11:54:00.221Z,30.00
2017-10-10T11:55:00.240Z,28.10
2017-10-10T11:56:00.264Z,28.30
2017-10-10T11:57:00.285Z,28.60
2017-10-10T11:58:00.306Z,26.40
2017-10-10T11:59:00.325Z,27.40
2017-10-10T12:00:00.365Z,27.80
2017-10-10T12:01:00.370Z,26.80
2017-10-10T12:02:00.389Z,27.80
2017-10-10T12:03:00.425Z,27.30
2017-10-10T12:04:00.434Z,28.30
2017-10-10T12:05:00.459Z,29.00
2017-10-10T12:06:00.478Z,30.00
2017-10-10T12:07:00.500Z,27.40
2017-10-10T12:08:00.521Z,27.70
2017-10-10T12:09:00.558Z,25.80
2017-10-10T12:10:00.570Z,26.10
2017-10-10T12:11:00.594Z,26.50
2017-10-10T12:12:00.615Z,26.90
2017-10-10T12:13:00.632Z,26.10
2017-10-10T12:14:00.657Z,24.60
2017-10-10T12:15:00.673Z,26.30
2017-10-10T12:16:00.696Z,25.50
2017-10-10T12:17:00.733Z,26.20
2017-10-10T12:18:00.739Z,25.80
2017-10-10T12:19:00.761Z,27.00
2017-10-10T12:20:00.789Z,25.80
2017-10-10T12:21:00.802Z,26.90
2017-10-10T12:22:00.826Z,26.60
2017-10-10T12:23:00.846Z,26.80
2017-10-10T12:24:00.870Z,25.70
2017-10-10T12:25:00.893Z,24.00
2017-10-10T12:26:00.916Z,24.40
2017-10-10T12:27:00.934Z,23.50
2017-10-10T12:28:00.956Z,23.90
2017-10-10T12:29:00.979Z,25.50
2017-10-10T12:30:01.005Z,25.50
2017-10-10T12:31:01.026Z,23.70
2017-10-10T12:32:01.042Z,25.40
2017-10-10T12:33:01.067Z,24.50
2017-10-10T12:34:01.087Z,25.50
2017-10-10T12:35:01.110Z,25.70
2017-10-10T12:36:01.128Z,25.80
2017-10-10T12:37:01.156Z,25.80
2017-10-10T12:38:01.194Z,24.80
2017-10-10T12:39:01.191Z,26.00
2017-10-10T12:40:01.221Z,25.30
2017-10-10T12:41:01.243Z,24.80
2017-10-10T12:42:01.273Z,25.30
2017-10-10T12:43:01.282Z,25.60
2017-10-10T12:44:01.305Z,26.70
2017-10-10T12:45:01.324Z,26.20
2017-10-10T12:46:01.483Z,26.60
2017-10-10T12:47:01.363Z,27.10
2017-10-10T12:48:01.392Z,27.30
2017-10-10T12:49:01.409Z,25.80
2017-10-10T12:50:01.433Z,25.90
2017-10-10T12:51:01.448Z,27.20
2017-10-10T12:52:01.467Z,27.70
2017-10-10T12:53:01.489Z,26.70
2017-10-10T12:54:01.524Z,27.30